createdAt,value
2019-01-17T00:00:20.168Z,80.10
2019-01-17T00:03:06.477Z,80.10
2019-01-17T00:05:52.811Z,80.00
2019-01-17T00:08:39.136Z,79.80
2019-01-17T00:11:12.187Z,79.80
2019-01-17T00:13:42.362Z,79.80
2019-01-17T00:16:18.226Z,79.80
2019-01-17T00:18:51.008Z,79.70
2019-01-17T00:21:30.060Z,79.80
2019-01-17T00:24:11.994Z,79.80
2019-01-17T00:26:47.906Z,79.80
2019-01-17T00:29:18.223Z,80.60
2019-01-17T00:32:00.224Z,79.70
2019-01-17T00:34:36.314Z,79.80
2019-01-17T00:37:18.888Z,79.80
2019-01-17T00:39:57.930Z,79.70
2019-01-17T00:42:31.083Z,79.90
2019-01-17T00:45:17.290Z,79.80
2019-01-17T00:47:59.193Z,79.90
2019-01-17T00:50:31.893Z,80.00
2019-01-17T00:53:19.929Z,80.00
2019-01-17T00:55:53.124Z,79.90
2019-01-17T00:58:39.590Z,79.80
2019-01-17T01:01:12.861Z,79.70
2019-01-17T01:03:52.217Z,79.70
2019-01-17T01:06:22.339Z,79.90
2019-01-17T01:08:52.436Z,79.50
2019-01-17T01:11:28.609Z,79.40
2019-01-17T01:14:07.999Z,79.20
2019-01-17T01:16:57.381Z,79.30
2019-01-17T01:19:45.881Z,79.00
2019-01-17T01:22:16.000Z,79.00
2019-01-17T01:24:55.055Z,78.70
2019-01-17T01:27:28.129Z,78.50
2019-01-17T01:29:58.244Z,78.20
2019-01-17T01:32:40.273Z,78.00
2019-01-17T01:35:10.363Z,78.00
2019-01-17T01:37:40.513Z,78.00
2019-01-17T01:40:28.924Z,77.90
2019-01-17T01:43:11.189Z,78.00
2019-01-17T01:45:59.759Z,77.90
2019-01-17T01:48:32.305Z,78.00
2019-01-17T01:51:20.300Z,78.00
2019-01-17T01:53:48.798Z,78.10
2019-01-17T01:56:17.255Z,78.20
2019-01-17T01:58:45.732Z,78.30
2019-01-17T02:01:14.274Z,78.20
2019-01-17T02:03:42.761Z,78.40
2019-01-17T02:06:11.272Z,78.20
2019-01-17T02:08:39.714Z,78.10
2019-01-17T02:11:08.272Z,77.90
2019-01-17T02:13:36.890Z,77.60
2019-01-17T02:16:05.517Z,77.50
2019-01-17T02:18:33.974Z,77.60
2019-01-17T02:21:02.518Z,77.90
2019-01-17T02:23:30.976Z,78.00
2019-01-17T02:25:59.456Z,78.20
2019-01-17T02:28:27.928Z,78.20
2019-01-17T02:30:56.393Z,77.70
2019-01-17T02:33:24.862Z,77.50
2019-01-17T02:35:53.336Z,77.30
2019-01-17T02:38:21.795Z,76.80
2019-01-17T02:40:50.344Z,77.00
2019-01-17T02:43:18.801Z,76.70
2019-01-17T02:45:47.293Z,76.40
2019-01-17T02:48:15.815Z,76.60
2019-01-17T02:50:44.277Z,76.30
2019-01-17T02:53:12.731Z,76.30
2019-01-17T02:55:41.283Z,76.20
2019-01-17T02:58:10.309Z,76.30
2019-01-17T03:00:39.409Z,76.30
2019-01-17T03:03:07.887Z,76.50
2019-01-17T03:05:36.349Z,76.50
2019-01-17T03:08:05.045Z,76.50
2019-01-17T03:10:33.521Z,76.50
2019-01-17T03:13:01.999Z,76.70
2019-01-17T03:15:30.554Z,76.80
2019-01-17T03:17:59.028Z,76.90
2019-01-17T03:20:27.499Z,77.00
2019-01-17T03:22:55.976Z,77.10
2019-01-17T03:25:24.517Z,77.10
2019-01-17T03:27:52.974Z,77.30
2019-01-17T03:30:21.449Z,77.40
2019-01-17T03:32:49.981Z,77.50
2019-01-17T03:35:18.599Z,77.60
2019-01-17T03:37:47.069Z,77.70
2019-01-17T03:40:16.187Z,77.60
2019-01-17T03:42:44.754Z,77.60
2019-01-17T03:45:14.265Z,77.80
2019-01-17T03:47:42.804Z,77.80
2019-01-17T03:50:13.409Z,77.70
2019-01-17T03:52:42.214Z,77.60
2019-01-17T03:55:14.104Z,77.50
2019-01-17T03:57:42.722Z,77.50
2019-01-17T04:00:16.602Z,77.30
2019-01-17T04:02:45.048Z,77.20
2019-01-17T04:05:13.693Z,77.10
2019-01-17T04:07:42.156Z,77.00
2019-01-17T04:10:15.683Z,77.10
2019-01-17T04:12:44.217Z,77.30
2019-01-17T04:15:13.706Z,77.30
2019-01-17T04:17:42.230Z,77.30
2019-01-17T04:20:13.438Z,77.10
2019-01-17T04:22:42.547Z,77.10
2019-01-17T04:25:11.158Z,77.10
2019-01-17T04:27:39.884Z,77.20
2019-01-17T04:30:16.488Z,77.30
2019-01-17T04:32:45.009Z,77.30
2019-01-17T04:35:13.552Z,77.30
2019-01-17T04:37:42.084Z,77.50
2019-01-17T04:40:12.767Z,77.50
2019-01-17T04:42:41.403Z,77.50
2019-01-17T04:45:12.017Z,77.60
2019-01-17T04:47:40.547Z,77.70
2019-01-17T04:50:11.676Z,77.80
2019-01-17T04:52:40.414Z,77.80
2019-01-17T04:55:11.593Z,77.60
2019-01-17T04:57:40.130Z,77.60
2019-01-17T05:00:17.902Z,77.60
2019-01-17T05:02:46.366Z,77.40
2019-01-17T05:05:15.352Z,77.20
2019-01-17T05:07:43.829Z,77.10
2019-01-17T05:10:15.140Z,77.10
2019-01-17T05:12:43.672Z,76.80
2019-01-17T05:15:13.001Z,76.80
2019-01-17T05:17:41.452Z,76.90
2019-01-17T05:20:13.149Z,76.70
2019-01-17T05:22:42.183Z,76.80
2019-01-17T05:25:12.843Z,76.90
2019-01-17T05:27:41.185Z,77.00
2019-01-17T05:30:15.384Z,77.80
2019-01-17T05:32:44.664Z,76.80
2019-01-17T05:35:13.603Z,76.80
2019-01-17T05:37:42.641Z,76.60
2019-01-17T05:40:14.365Z,76.70
2019-01-17T05:42:43.427Z,76.60
2019-01-17T05:45:12.689Z,76.60
2019-01-17T05:47:41.898Z,76.70
2019-01-17T05:50:16.364Z,76.80
2019-01-17T05:52:45.453Z,76.80
2019-01-17T05:55:19.793Z,76.80
2019-01-17T05:57:44.761Z,77.00
2019-01-17T06:00:16.452Z,77.10
2019-01-17T06:02:45.557Z,77.20
2019-01-17T06:05:15.937Z,77.50
2019-01-17T06:07:44.998Z,77.60
2019-01-17T06:10:14.283Z,77.80
2019-01-17T06:12:43.326Z,78.00
2019-01-17T06:15:15.712Z,78.20
2019-01-17T06:17:44.831Z,78.30
2019-01-17T06:20:16.313Z,78.60
2019-01-17T06:22:45.241Z,78.60
2019-01-17T06:25:14.291Z,78.60
2019-01-17T06:27:43.415Z,79.00
2019-01-17T06:30:14.682Z,79.00
2019-01-17T06:32:43.934Z,79.10
2019-01-17T06:35:13.471Z,79.40
2019-01-17T06:37:42.099Z,79.60
2019-01-17T06:40:17.362Z,79.80
2019-01-17T06:42:45.966Z,80.00
2019-01-17T06:45:14.732Z,80.00
2019-01-17T06:47:43.973Z,80.10
2019-01-17T06:50:13.271Z,80.20
2019-01-17T06:52:42.324Z,80.30
2019-01-17T06:55:10.944Z,80.30
2019-01-17T06:57:39.989Z,80.30
2019-01-17T07:00:17.108Z,80.40
2019-01-17T07:02:46.215Z,80.30
2019-01-17T07:05:15.858Z,80.30
2019-01-17T07:07:44.932Z,80.40
2019-01-17T07:10:16.215Z,80.30
2019-01-17T07:12:46.046Z,80.30
2019-01-17T07:15:14.978Z,80.30
2019-01-17T07:17:44.023Z,80.40
2019-01-17T07:20:15.019Z,80.50
2019-01-17T07:22:44.317Z,80.50
2019-01-17T07:25:13.499Z,80.50
2019-01-17T07:27:42.545Z,80.60
2019-01-17T07:30:17.182Z,80.60
2019-01-17T07:32:46.229Z,80.50
2019-01-17T07:35:15.484Z,80.50
2019-01-17T07:37:44.526Z,80.50
2019-01-17T07:40:14.289Z,80.40
2019-01-17T07:42:43.668Z,80.40
2019-01-17T07:45:21.766Z,80.40
2019-01-17T07:47:50.803Z,80.40
2019-01-17T07:50:19.892Z,80.50
2019-01-17T07:52:48.929Z,80.30
2019-01-17T07:55:17.991Z,80.30
2019-01-17T07:57:47.119Z,80.30
2019-01-17T08:00:18.584Z,80.50
2019-01-17T08:02:47.625Z,80.40
2019-01-17T08:05:16.711Z,80.30
2019-01-17T08:07:45.799Z,80.40
2019-01-17T08:10:19.698Z,80.40
2019-01-17T08:12:49.066Z,80.40
2019-01-17T08:15:18.185Z,80.30
2019-01-17T08:17:47.231Z,81.10
2019-01-17T08:20:21.807Z,80.50
2019-01-17T08:22:51.104Z,80.50
2019-01-17T08:25:20.363Z,80.40
2019-01-17T08:27:49.461Z,80.50
2019-01-17T08:30:21.032Z,80.60
2019-01-17T08:32:50.098Z,80.50
2019-01-17T08:35:19.378Z,80.50
2019-01-17T08:37:48.435Z,80.60
2019-01-17T08:40:26.149Z,80.40
2019-01-17T08:42:55.282Z,80.50
2019-01-17T08:45:24.454Z,80.50
2019-01-17T08:47:53.540Z,80.50
2019-01-17T08:50:22.640Z,80.50
2019-01-17T08:52:51.670Z,80.50
2019-01-17T08:55:20.912Z,80.30
2019-01-17T08:57:50.095Z,80.40
2019-01-17T09:00:24.416Z,80.30
2019-01-17T09:02:53.532Z,80.30
2019-01-17T09:05:22.548Z,80.30
2019-01-17T09:07:51.575Z,80.30
2019-01-17T09:10:26.359Z,80.30
2019-01-17T09:12:55.473Z,80.50
2019-01-17T09:15:30.144Z,80.50
2019-01-17T09:17:59.173Z,80.50
2019-01-17T09:20:28.243Z,80.50
2019-01-17T09:22:57.314Z,80.50
2019-01-17T09:25:26.525Z,80.30
2019-01-17T09:27:55.548Z,80.30
2019-01-17T09:30:24.597Z,80.10
2019-01-17T09:32:53.810Z,80.30
2019-01-17T09:35:22.963Z,80.00
2019-01-17T09:37:52.243Z,80.00
2019-01-17T09:40:22.496Z,79.80
2019-01-17T09:42:51.581Z,79.80
2019-01-17T09:45:20.723Z,79.50
2019-01-17T09:47:49.826Z,79.50
2019-01-17T09:50:21.125Z,79.80
2019-01-17T09:52:50.581Z,80.00
2019-01-17T09:55:19.769Z,80.10
2019-01-17T09:57:48.803Z,80.50
2019-01-17T10:00:20.999Z,80.60
2019-01-17T10:02:50.182Z,80.50
2019-01-17T10:05:19.368Z,80.50
2019-01-17T10:07:48.549Z,80.30
2019-01-17T10:10:19.644Z,80.20
2019-01-17T10:12:48.670Z,79.50
2019-01-17T10:15:35.756Z,79.20
2019-01-17T10:18:27.621Z,78.90
2019-01-17T10:21:05.756Z,78.50
2019-01-17T10:23:52.749Z,78.60
2019-01-17T10:26:30.478Z,78.60
2019-01-17T10:29:05.375Z,78.70
2019-01-17T10:31:59.564Z,78.70
2019-01-17T10:34:40.600Z,78.50
2019-01-17T10:37:26.838Z,78.60
2019-01-17T10:40:16.980Z,78.70
2019-01-17T10:42:54.881Z,78.90
2019-01-17T10:45:54.130Z,79.00
2019-01-17T10:48:38.235Z,79.00
2019-01-17T10:51:37.119Z,78.90
2019-01-17T10:54:18.070Z,78.90
2019-01-17T10:57:11.043Z,79.10
2019-01-17T10:59:43.221Z,79.20
2019-01-17T11:02:39.574Z,78.70
2019-01-17T11:05:26.354Z,78.80
2019-01-17T11:08:01.433Z,78.80
2019-01-17T11:11:00.743Z,78.20
2019-01-17T11:13:35.520Z,78.50
2019-01-17T11:16:13.374Z,78.70
2019-01-17T11:18:45.516Z,78.40
2019-01-17T11:21:38.611Z,78.30
2019-01-17T11:24:22.545Z,78.20
2019-01-17T11:27:17.342Z,78.20
2019-01-17T11:30:07.555Z,77.90
2019-01-17T11:32:45.623Z,77.00
2019-01-17T11:35:29.836Z,76.90
2019-01-17T11:38:18.467Z,77.40
2019-01-17T11:40:59.207Z,77.30
2019-01-17T11:43:49.218Z,77.40
2019-01-17T11:46:30.095Z,76.70
2019-01-17T11:49:10.437Z,76.20
2019-01-17T11:51:51.515Z,76.20
2019-01-17T11:54:42.977Z,76.00
2019-01-17T11:57:39.356Z,75.60
2019-01-17T12:00:23.402Z,75.00
2019-01-17T12:02:55.516Z,74.60
2019-01-17T12:05:24.541Z,73.90
2019-01-17T12:07:53.582Z,74.30
2019-01-17T12:10:22.638Z,74.20
2019-01-17T12:12:52.060Z,74.20
2019-01-17T12:15:21.090Z,74.20
2019-01-17T12:17:50.138Z,74.50
2019-01-17T12:20:19.166Z,73.90
2019-01-17T12:22:48.200Z,73.20
2019-01-17T12:25:17.242Z,72.70
2019-01-17T12:27:46.283Z,73.40
2019-01-17T12:30:15.451Z,73.30
2019-01-17T12:32:44.490Z,73.90
2019-01-17T12:35:13.532Z,73.90
2019-01-17T12:37:42.567Z,73.90
2019-01-17T12:40:12.444Z,73.90
2019-01-17T12:42:41.470Z,73.50
2019-01-17T12:45:11.052Z,73.50
2019-01-17T12:47:40.093Z,73.20
2019-01-17T12:50:12.347Z,72.70
2019-01-17T12:52:41.470Z,72.70
2019-01-17T12:55:10.848Z,72.90
2019-01-17T12:57:39.873Z,72.10
2019-01-17T13:00:14.934Z,71.60
2019-01-17T13:02:44.028Z,71.10
2019-01-17T13:05:13.221Z,70.70
2019-01-17T13:07:42.255Z,69.90
2019-01-17T13:10:13.934Z,70.30
2019-01-17T13:12:43.042Z,69.40
2019-01-17T13:15:12.977Z,69.80
2019-01-17T13:17:42.006Z,68.50
2019-01-17T13:20:14.077Z,68.60
2019-01-17T13:22:43.261Z,69.30
2019-01-17T13:25:19.714Z,69.50
2019-01-17T13:27:48.791Z,70.80
2019-01-17T13:30:20.595Z,70.50
2019-01-17T13:32:49.709Z,70.60
2019-01-17T13:35:18.909Z,71.30
2019-01-17T13:37:47.955Z,71.40
2019-01-17T13:40:19.117Z,71.70
2019-01-17T13:42:48.190Z,71.90
2019-01-17T13:45:19.257Z,72.50
2019-01-17T13:47:48.375Z,72.00
2019-01-17T13:50:17.655Z,71.90
2019-01-17T13:52:46.767Z,72.20
2019-01-17T13:55:17.120Z,72.30
2019-01-17T13:57:46.161Z,71.80
2019-01-17T14:00:25.803Z,71.90
2019-01-17T14:02:54.909Z,72.40
2019-01-17T14:05:24.097Z,71.10
2019-01-17T14:07:53.157Z,70.90
2019-01-17T14:10:22.187Z,70.80
2019-01-17T14:12:51.243Z,71.60
2019-01-17T14:15:31.005Z,71.90
2019-01-17T14:18:00.039Z,72.00
2019-01-17T14:20:29.067Z,72.40
2019-01-17T14:22:58.100Z,72.90
2019-01-17T14:25:27.135Z,73.20
2019-01-17T14:27:56.173Z,73.50
2019-01-17T14:30:29.120Z,73.90
2019-01-17T14:32:58.165Z,74.40
2019-01-17T14:35:27.182Z,74.60
2019-01-17T14:37:58.000Z,74.40
2019-01-17T14:40:27.035Z,73.90
2019-01-17T14:42:56.092Z,73.50
2019-01-17T14:45:25.194Z,73.70
2019-01-17T14:47:54.436Z,73.70
2019-01-17T14:50:26.110Z,73.90
2019-01-17T14:52:55.204Z,73.70
2019-01-17T14:55:24.216Z,73.70
2019-01-17T14:57:53.396Z,74.20
2019-01-17T15:00:28.260Z,74.60
2019-01-17T15:02:57.327Z,75.00
2019-01-17T15:05:26.516Z,75.20
2019-01-17T15:07:55.578Z,75.60
2019-01-17T15:10:30.690Z,75.90
2019-01-17T15:12:59.812Z,76.10
2019-01-17T15:15:28.847Z,75.60
2019-01-17T15:17:57.908Z,76.80
2019-01-17T15:20:26.948Z,77.10
2019-01-17T15:22:55.979Z,77.40
2019-01-17T15:25:25.130Z,77.90
2019-01-17T15:27:54.155Z,78.10
2019-01-17T15:30:26.251Z,78.20
2019-01-17T15:32:55.527Z,78.50
2019-01-17T15:35:24.567Z,78.70
2019-01-17T15:37:53.675Z,78.80
2019-01-17T15:40:24.843Z,78.50
2019-01-17T15:42:53.885Z,78.00
2019-01-17T15:45:22.906Z,77.90
2019-01-17T15:47:52.036Z,77.90
2019-01-17T15:50:21.128Z,77.90
2019-01-17T15:52:50.187Z,77.80
2019-01-17T15:55:19.397Z,77.60
2019-01-17T15:57:48.647Z,77.40
2019-01-17T16:00:23.011Z,77.10
2019-01-17T16:02:52.083Z,77.00
2019-01-17T16:05:21.393Z,76.80
2019-01-17T16:07:50.411Z,77.00
2019-01-17T16:10:19.445Z,77.30
2019-01-17T16:12:48.538Z,77.40
2019-01-17T16:15:25.431Z,77.30
2019-01-17T16:17:54.755Z,77.20
2019-01-17T16:20:23.954Z,76.80
2019-01-17T16:22:53.149Z,76.60
2019-01-17T16:25:22.270Z,76.50
2019-01-17T16:27:53.209Z,76.60
2019-01-17T16:30:24.839Z,77.00
2019-01-17T16:32:55.708Z,77.50
2019-01-17T16:35:25.064Z,77.90
2019-01-17T16:37:54.254Z,78.50
2019-01-17T16:40:23.294Z,78.80
2019-01-17T16:42:52.340Z,78.80
2019-01-17T16:45:23.318Z,78.60
2019-01-17T16:47:52.685Z,78.60
2019-01-17T16:50:23.548Z,78.30
2019-01-17T16:52:52.662Z,78.10
2019-01-17T16:55:21.683Z,78.00
2019-01-17T16:57:50.796Z,77.90
2019-01-17T17:00:22.771Z,77.80
2019-01-17T17:02:51.818Z,77.70
2019-01-17T17:05:20.942Z,77.60
2019-01-17T17:07:49.991Z,77.50
2019-01-17T17:10:19.080Z,77.20
2019-01-17T17:12:48.132Z,77.00
2019-01-17T17:15:17.226Z,76.90
2019-01-17T17:17:45.712Z,79.00
2019-01-17T17:20:24.110Z,81.60
2019-01-17T17:22:52.716Z,82.30
2019-01-17T17:25:21.257Z,83.50
2019-01-17T17:27:55.317Z,85.30
2019-01-17T17:30:22.801Z,86.50
2019-01-17T17:32:51.348Z,87.00
2019-01-17T17:35:19.872Z,87.70
2019-01-17T17:37:48.381Z,87.80
2019-01-17T17:40:25.765Z,88.50
2019-01-17T17:42:54.241Z,88.30
2019-01-17T17:45:22.951Z,88.40
2019-01-17T17:47:51.671Z,88.80
2019-01-17T17:50:21.708Z,88.70
2019-01-17T17:52:50.251Z,89.60
2019-01-17T17:55:19.650Z,88.60
2019-01-17T17:57:48.309Z,88.50
2019-01-17T18:00:26.605Z,88.20
2019-01-17T18:02:55.617Z,88.10
2019-01-17T18:05:24.099Z,88.00
2019-01-17T18:07:52.811Z,88.10
2019-01-17T18:10:21.264Z,88.10
2019-01-17T18:12:49.815Z,87.60
2019-01-17T18:15:19.534Z,87.50
2019-01-17T18:17:48.427Z,86.80
2019-01-17T18:20:17.789Z,86.50
2019-01-17T18:22:46.273Z,86.50
2019-01-17T18:25:14.974Z,86.30
2019-01-17T18:27:44.217Z,86.50
2019-01-17T18:30:24.549Z,87.20
2019-01-17T18:32:53.173Z,88.20
2019-01-17T18:35:21.645Z,88.50
2019-01-17T18:37:50.187Z,88.50
2019-01-17T18:40:20.183Z,88.50
2019-01-17T18:42:48.739Z,89.00
2019-01-17T18:45:25.279Z,89.00
2019-01-17T18:47:54.014Z,89.00
2019-01-17T18:50:25.389Z,88.60
2019-01-17T18:52:53.844Z,88.70
2019-01-17T18:55:22.316Z,88.70
2019-01-17T18:57:50.847Z,88.40
2019-01-17T19:00:23.044Z,88.30
2019-01-17T19:02:51.742Z,88.40
2019-01-17T19:05:20.734Z,88.30
2019-01-17T19:07:49.503Z,88.10
2019-01-17T19:10:19.406Z,88.00
2019-01-17T19:12:48.023Z,88.00
2019-01-17T19:15:19.394Z,87.70
2019-01-17T19:17:47.951Z,87.50
2019-01-17T19:20:18.350Z,87.90
2019-01-17T19:22:46.828Z,88.10
2019-01-17T19:25:15.731Z,88.10
2019-01-17T19:27:44.206Z,88.00
2019-01-17T19:30:23.944Z,88.00
2019-01-17T19:32:52.470Z,88.00
2019-01-17T19:35:21.002Z,88.00
2019-01-17T19:37:49.629Z,87.60
2019-01-17T19:40:20.443Z,87.60
2019-01-17T19:42:49.117Z,87.50
2019-01-17T19:45:17.919Z,87.40
2019-01-17T19:47:46.536Z,87.40
2019-01-17T19:50:21.397Z,87.20
2019-01-17T19:52:49.957Z,86.70
2019-01-17T19:55:18.762Z,86.70
2019-01-17T19:57:47.320Z,86.70
2019-01-17T20:00:20.489Z,87.40
2019-01-17T20:02:49.103Z,86.80
2019-01-17T20:05:19.903Z,87.00
2019-01-17T20:07:48.446Z,86.90
2019-01-17T20:10:22.439Z,86.90
2019-01-17T20:12:51.093Z,87.10
2019-01-17T20:15:19.621Z,87.20
2019-01-17T20:17:48.264Z,87.40
2019-01-17T20:20:18.293Z,88.50
2019-01-17T20:22:46.853Z,87.70
2019-01-17T20:25:15.857Z,87.20
2019-01-17T20:27:44.387Z,86.70
2019-01-17T20:30:18.297Z,86.70
2019-01-17T20:32:47.391Z,87.00
2019-01-17T20:35:16.409Z,87.30
2019-01-17T20:37:45.104Z,87.40
2019-01-17T20:40:16.437Z,87.50
2019-01-17T20:42:44.914Z,87.50
2019-01-17T20:45:14.238Z,87.40
2019-01-17T20:47:42.703Z,87.20
2019-01-17T20:50:14.255Z,87.10
2019-01-17T20:52:42.899Z,87.00
2019-01-17T20:55:12.400Z,86.90
2019-01-17T20:57:41.703Z,86.80
2019-01-17T21:00:19.231Z,86.60
2019-01-17T21:02:47.776Z,86.50
2019-01-17T21:05:16.856Z,86.30
2019-01-17T21:07:45.683Z,86.20
2019-01-17T21:10:16.122Z,86.00
2019-01-17T21:12:44.588Z,85.60
2019-01-17T21:15:14.708Z,85.60
2019-01-17T21:17:43.402Z,85.70
2019-01-17T21:20:13.625Z,85.50
2019-01-17T21:22:42.089Z,85.40
2019-01-17T21:25:18.354Z,85.40
2019-01-17T21:27:46.986Z,85.20
2019-01-17T21:30:18.535Z,85.20
2019-01-17T21:32:47.073Z,84.50
2019-01-17T21:35:15.794Z,84.40
2019-01-17T21:37:44.370Z,83.50
2019-01-17T21:40:15.481Z,83.20
2019-01-17T21:42:43.934Z,83.00
2019-01-17T21:45:14.747Z,83.40
2019-01-17T21:47:43.385Z,83.50
2019-01-17T21:50:14.789Z,83.50
2019-01-17T21:52:43.316Z,83.50
2019-01-17T21:55:11.949Z,83.60
2019-01-17T21:57:40.421Z,83.60
2019-01-17T22:00:14.883Z,83.80
2019-01-17T22:02:43.358Z,83.40
2019-01-17T22:05:11.913Z,83.50
2019-01-17T22:07:40.375Z,83.50
2019-01-17T22:10:11.989Z,83.50
2019-01-17T22:12:40.523Z,83.70
2019-01-17T22:15:12.319Z,83.80
2019-01-17T22:17:40.792Z,83.60
2019-01-17T22:20:11.521Z,83.60
2019-01-17T22:22:39.997Z,83.70
2019-01-17T22:25:11.363Z,83.60
2019-01-17T22:27:39.837Z,83.80
2019-01-17T22:30:17.665Z,84.00
2019-01-17T22:32:46.154Z,84.10
2019-01-17T22:35:14.685Z,84.00
2019-01-17T22:37:43.229Z,83.90
2019-01-17T22:40:14.124Z,83.70
2019-01-17T22:42:42.677Z,83.60
2019-01-17T22:45:17.021Z,83.70
2019-01-17T22:47:45.501Z,83.60
2019-01-17T22:50:16.200Z,83.10
2019-01-17T22:52:44.808Z,82.70
2019-01-17T22:55:13.342Z,82.90
2019-01-17T22:57:41.825Z,83.10
2019-01-17T23:00:30.156Z,83.10
2019-01-17T23:02:58.794Z,82.90
2019-01-17T23:05:27.323Z,82.50
2019-01-17T23:07:55.805Z,82.80
2019-01-17T23:10:24.269Z,82.80
2019-01-17T23:12:52.748Z,82.60
2019-01-17T23:15:21.199Z,82.50
2019-01-17T23:17:49.676Z,82.00
2019-01-17T23:20:18.138Z,82.10
2019-01-17T23:22:46.622Z,82.00
2019-01-17T23:25:15.102Z,81.80
2019-01-17T23:27:43.644Z,81.50
2019-01-17T23:30:14.052Z,81.50
2019-01-17T23:32:42.524Z,81.30
2019-01-17T23:35:11.134Z,81.10
2019-01-17T23:37:39.602Z,81.10
2019-01-17T23:40:09.822Z,81.20
2019-01-17T23:42:38.377Z,81.20
2019-01-17T23:45:09.863Z,81.10
2019-01-17T23:47:38.339Z,81.40
2019-01-17T23:50:09.845Z,81.40
2019-01-17T23:52:38.304Z,81.50
2019-01-17T23:55:07.676Z,81.50
2019-01-17T23:57:36.218Z,81.90
